Portada
METAR-TAF:

METAR-TAF

Aeropuertos :

Aeropuerto Internacional Juan Vicente Gómez

San Antonio del Táchira, Venezuela

latitud: 07-51N, longitud: 072-27W, altitud: 377 m

Observación

El informe se hizo hace 14 minutos, a las 03:03 UTC
Viento 6 kt del sureste
Temperatura 26°C
Humedad 58%
Presión 1012 hPa

METAR: SVSA 230303Z AUTO 14006KT NCD 26/17 Q1012

Hora: 23:17 (03:17 UTC)

Pronóstico

El informe se hizo hace 5 horas y 17 minutos, a las 22:00 UTC
Pronóstico válido del 23 a las 00 UTC al 24 a las 00 UTC
Viento 5 kt del este-sureste
Visibilidad 10 km o más
Nubes dispersas a una altura de 1700 ft
Temporalmente
del 23 a las 00 UTC al 23 a las 04 UTC
Viento 3 kt del este-sureste
Visibilidad: 6000 m
Cielo cubierto a una altura de 1300 ft, Cumulonimbus.
tormenta, lluvia,

TAF: SVSA 222200Z 2300/2400 11005KT 9999 SCT017 TX32/2218Z TN17/2306Z TEMPO 2300/2304 12003KT 6000 TSRA OVC013CB

Observaciones y pronósticos meteorológicos de más de 4000 aeropuertos (mensajes METAR y TAF).

Los puntos amarillos y rojos representan las estaciones disponibles.

Ponga el ratón en el punto deseado para ver el nombre de la estación.

Haga clic para ver las observaciones y los pronósticos meteorológicos.

Para cambiar el mapa : haga clic en los botones verdes con una cruz de color negro para hacer un zoom, en el botón verde con un guión para alejar o en las flechas verdes para mapas adyacentes.


METAR-TAF: